createdAt,value
2018-05-03T00:00:09.971Z,94875.02
2018-05-03T00:02:39.017Z,94869.70
2018-05-03T00:07:44.171Z,94864.39
2018-05-03T00:10:13.213Z,94872.45
2018-05-03T00:12:42.280Z,94869.80
2018-05-03T00:15:11.361Z,94873.39
2018-05-03T00:17:40.417Z,94873.93
2018-05-03T00:20:09.546Z,94879.16
2018-05-03T00:22:38.602Z,94878.73
2018-05-03T00:25:07.727Z,94881.91
2018-05-03T00:27:36.788Z,94880.28
2018-05-03T00:30:05.831Z,94882.74
2018-05-03T00:32:34.966Z,94882.70
2018-05-03T00:37:39.794Z,94883.13
2018-05-03T00:40:09.092Z,94887.77
2018-05-03T00:42:38.151Z,94886.34
2018-05-03T00:45:07.203Z,94883.23
2018-05-03T00:47:36.258Z,94880.98
2018-05-03T00:50:05.573Z,94882.30
2018-05-03T00:52:34.621Z,94884.58
2018-05-03T00:55:03.680Z,94886.11
2018-05-03T00:57:32.718Z,94884.88
2018-05-03T01:00:01.950Z,94880.08
2018-05-03T01:02:31.057Z,94876.11
2018-05-03T01:05:00.095Z,94871.88
2018-05-03T01:07:29.242Z,94869.61
2018-05-03T01:09:58.314Z,94874.42
2018-05-03T01:15:03.217Z,94874.98
2018-05-03T01:17:32.403Z,94875.83
2018-05-03T01:20:01.456Z,94876.06
2018-05-03T01:22:30.538Z,94880.91
2018-05-03T01:24:59.590Z,94884.30
2018-05-03T01:27:28.823Z,94883.23
2018-05-03T01:29:57.870Z,94878.60
2018-05-03T01:37:50.363Z,94875.05
2018-05-03T01:42:55.197Z,94867.39
2018-05-03T01:48:00.036Z,94869.83
2018-05-03T01:50:29.087Z,94875.14
2018-05-03T01:52:58.202Z,94881.32
2018-05-03T01:55:27.254Z,94884.23
2018-05-03T01:57:56.305Z,94888.13
2018-05-03T02:00:25.341Z,94880.91
2018-05-03T02:02:54.533Z,94886.36
2018-05-03T02:05:23.587Z,94883.88
2018-05-03T02:07:52.633Z,94888.29
2018-05-03T02:10:21.704Z,94889.30
2018-05-03T02:12:50.933Z,94888.52
2018-05-03T02:15:20.360Z,94887.73
2018-05-03T02:17:49.407Z,94887.70
2018-05-03T02:20:18.486Z,94885.67
2018-05-03T02:22:47.541Z,94896.92
2018-05-03T02:25:16.897Z,94899.71
2018-05-03T02:27:46.854Z,94899.69
2018-05-03T02:30:15.931Z,94901.64
2018-05-03T02:32:45.017Z,94895.52
2018-05-03T02:35:14.101Z,94900.58
2018-05-03T02:37:43.148Z,94906.30
2018-05-03T02:40:12.214Z,94906.31
2018-05-03T02:42:42.374Z,94910.73
2018-05-03T02:45:11.644Z,94910.96
2018-05-03T02:47:40.674Z,94917.77
2018-05-03T02:50:09.776Z,94924.86
2018-05-03T02:52:39.218Z,94934.51
2018-05-03T02:55:08.246Z,94939.88
2018-05-03T02:58:00.469Z,94947.14
2018-05-03T03:00:52.818Z,94950.66
2018-05-03T03:15:31.544Z,94950.25
2018-05-03T03:18:18.174Z,94956.09
2018-05-03T03:21:10.479Z,94956.00
2018-05-03T03:29:58.618Z,94953.43
2018-05-03T03:32:45.695Z,94951.06
2018-05-03T03:39:00.178Z,94956.84
2018-05-03T03:46:44.748Z,94965.90
2018-05-03T03:49:13.799Z,94972.33
2018-05-03T03:51:42.845Z,94970.58
2018-05-03T03:54:12.049Z,94966.25
2018-05-03T03:56:41.098Z,94959.17
2018-05-03T04:01:45.923Z,94960.84
2018-05-03T04:04:14.998Z,94954.38
2018-05-03T04:06:44.260Z,94948.28
2018-05-03T04:09:13.308Z,94942.96
2018-05-03T04:11:42.353Z,94945.09
2018-05-03T04:14:11.395Z,94941.64
2018-05-03T04:16:40.457Z,94933.84
2018-05-03T04:22:22.007Z,94948.88
2018-05-03T04:25:08.654Z,94957.91
2018-05-03T04:27:37.706Z,94965.96
2018-05-03T04:30:06.980Z,94971.36
2018-05-03T04:32:37.422Z,94979.16
2018-05-03T04:35:07.450Z,94976.38
2018-05-03T04:37:36.490Z,94973.92
2018-05-03T04:40:05.941Z,94972.95
2018-05-03T04:42:34.988Z,94973.88
2018-05-03T04:45:04.042Z,94982.06
2018-05-03T04:47:33.359Z,94980.03
2018-05-03T04:50:02.418Z,94986.03
2018-05-03T04:52:31.522Z,94986.91
2018-05-03T04:55:00.862Z,94986.06
2018-05-03T04:57:29.910Z,94988.30
2018-05-03T04:59:58.989Z,94988.56
2018-05-03T05:02:28.310Z,94997.46
2018-05-03T05:04:57.558Z,95004.83
2018-05-03T05:07:26.603Z,95010.53
2018-05-03T05:09:56.025Z,95012.28
2018-05-03T05:12:25.074Z,95023.08
2018-05-03T05:14:54.153Z,95027.53
2018-05-03T05:17:23.196Z,95031.72
2018-05-03T05:19:52.254Z,95037.59
2018-05-03T05:22:22.131Z,95031.13
2018-05-03T05:24:51.170Z,95025.70
2018-05-03T05:27:20.219Z,95030.23
2018-05-03T05:29:49.290Z,95029.98
2018-05-03T05:34:54.047Z,95023.93
2018-05-03T05:37:23.112Z,95027.64
2018-05-03T05:39:52.174Z,95032.06
2018-05-03T05:44:56.523Z,95037.72
2018-05-03T05:47:25.566Z,95038.27
2018-05-03T05:49:55.103Z,95039.64
2018-05-03T05:52:24.154Z,95047.03
2018-05-03T05:54:53.276Z,95044.17
2018-05-03T05:57:22.304Z,95043.01
2018-05-03T05:59:51.705Z,95051.79
2018-05-03T06:04:56.458Z,95063.05
2018-05-03T06:07:25.509Z,95067.80
2018-05-03T06:09:54.699Z,95066.16
2018-05-03T06:12:23.766Z,95065.17
2018-05-03T06:14:53.231Z,95063.61
2018-05-03T06:17:22.277Z,95063.45
2018-05-03T06:19:51.755Z,95066.48
2018-05-03T06:22:20.804Z,95066.59
2018-05-03T06:24:49.871Z,95066.80
2018-05-03T06:27:19.733Z,95061.99
2018-05-03T06:29:48.762Z,95057.91
2018-05-03T06:32:18.478Z,95059.95
2018-05-03T06:34:47.686Z,95062.14
2018-05-03T06:37:17.683Z,95065.10
2018-05-03T06:39:47.019Z,95066.28
2018-05-03T06:42:16.085Z,95068.56
2018-05-03T06:44:45.718Z,95069.25
2018-05-03T06:47:14.770Z,95077.58
2018-05-03T06:49:44.763Z,95074.32
2018-05-03T06:52:16.362Z,95069.05
2018-05-03T06:54:45.425Z,95070.36
2018-05-03T06:59:50.427Z,95071.67
2018-05-03T07:02:19.557Z,95079.70
2018-05-03T07:04:48.640Z,95079.55
2018-05-03T07:09:54.042Z,95081.39
2018-05-03T07:12:23.104Z,95077.73
2018-05-03T07:14:52.547Z,95086.34
2018-05-03T07:19:57.383Z,95091.67
2018-05-03T07:22:26.902Z,95098.92
2018-05-03T07:24:55.960Z,95094.81
2018-05-03T07:27:25.887Z,95094.42
2018-05-03T07:29:55.133Z,95098.11
2018-05-03T07:32:24.174Z,95104.23
2018-05-03T07:34:53.276Z,95101.86
2018-05-03T07:37:22.274Z,95095.61
2018-05-03T07:42:29.161Z,95091.43
2018-05-03T07:47:35.134Z,95091.78
2018-05-03T07:50:04.157Z,95086.20
2018-05-03T07:52:34.607Z,95086.20
2018-05-03T07:55:03.691Z,95086.77
2018-05-03T07:57:32.943Z,95091.19
2018-05-03T08:00:02.018Z,95089.75
2018-05-03T08:02:31.067Z,95089.14
2018-05-03T08:05:00.134Z,95084.37
2018-05-03T08:07:29.178Z,95087.84
2018-05-03T08:12:34.701Z,95083.20
2018-05-03T08:15:03.679Z,95086.07
2018-05-03T08:17:33.213Z,95089.16
2018-05-03T08:20:02.264Z,95093.16
2018-05-03T08:22:31.442Z,95094.19
2018-05-03T08:30:12.270Z,95101.06
2018-05-03T08:32:41.322Z,95100.52
2018-05-03T08:35:10.376Z,95101.19
2018-05-03T08:37:39.792Z,95105.06
2018-05-03T08:40:08.811Z,95110.30
2018-05-03T08:42:38.754Z,95116.27
2018-05-03T08:45:07.790Z,95111.97
2018-05-03T08:47:37.674Z,95110.92
2018-05-03T08:50:06.727Z,95118.53
2018-05-03T08:52:35.785Z,95116.89
2018-05-03T08:55:06.690Z,95119.32
2018-05-03T08:57:35.787Z,95121.23
2018-05-03T09:00:04.833Z,95128.31
2018-05-03T09:02:33.887Z,95128.49
2018-05-03T09:05:02.933Z,95122.40
2018-05-03T09:07:32.039Z,95119.76
2018-05-03T09:10:01.177Z,95123.91
2018-05-03T09:12:30.225Z,95126.50
2018-05-03T09:14:59.891Z,95125.88
2018-05-03T09:17:28.934Z,95134.06
2018-05-03T09:19:58.949Z,95139.53
2018-05-03T09:22:27.988Z,95145.13
2018-05-03T09:27:32.910Z,95150.30
2018-05-03T09:30:01.963Z,95151.27
2018-05-03T09:32:31.026Z,95156.92
2018-05-03T09:35:00.082Z,95156.22
2018-05-03T09:37:29.125Z,95157.98
2018-05-03T09:42:33.997Z,95160.81
2018-05-03T09:45:03.983Z,95152.46
2018-05-03T09:47:33.031Z,95152.63
2018-05-03T09:50:02.859Z,95148.98
2018-05-03T09:52:32.053Z,95143.52
2018-05-03T09:55:02.115Z,95136.05
2018-05-03T09:57:31.161Z,95132.51
2018-05-03T10:00:00.211Z,95132.77
2018-05-03T10:02:29.279Z,95127.69
2018-05-03T10:04:58.699Z,95131.47
2018-05-03T10:07:27.734Z,95125.57
2018-05-03T10:09:57.965Z,95121.75
2018-05-03T10:12:27.047Z,95121.50
2018-05-03T10:20:09.026Z,95110.13
2018-05-03T10:25:13.856Z,95108.13
2018-05-03T10:27:42.897Z,95102.51
2018-05-03T10:32:47.802Z,95108.16
2018-05-03T10:35:17.375Z,95111.13
2018-05-03T10:37:46.422Z,95106.27
2018-05-03T10:40:16.059Z,95099.58
2018-05-03T10:42:45.103Z,95104.29
2018-05-03T10:45:14.154Z,95103.38
2018-05-03T10:47:44.464Z,95095.38
2018-05-03T10:50:13.513Z,95094.20
2018-05-03T10:52:43.235Z,95094.69
2018-05-03T10:55:12.293Z,95089.42
2018-05-03T10:57:41.895Z,95085.40
2018-05-03T11:00:10.976Z,95082.55
2018-05-03T11:02:40.055Z,95083.21
2018-05-03T11:05:09.126Z,95088.41
2018-05-03T11:07:38.181Z,95085.30
2018-05-03T11:10:07.279Z,95081.15
2018-05-03T11:15:12.138Z,95074.41
2018-05-03T11:17:41.190Z,95076.31
2018-05-03T11:20:11.290Z,95080.20
2018-05-03T11:22:40.347Z,95080.95
2018-05-03T11:25:10.061Z,95087.02
2018-05-03T11:30:14.919Z,95081.06
2018-05-03T11:35:19.776Z,95093.56
2018-05-03T11:37:49.512Z,95094.27
2018-05-03T11:40:18.548Z,95095.98
2018-05-03T11:42:48.144Z,95093.53
2018-05-03T11:45:17.106Z,95098.61
2018-05-03T11:50:22.299Z,95093.22
2018-05-03T11:52:51.370Z,95095.84
2018-05-03T11:55:20.454Z,95092.76
2018-05-03T11:57:49.501Z,95094.77
2018-05-03T12:00:18.561Z,95098.61
2018-05-03T12:02:47.626Z,95101.88
2018-05-03T12:05:16.697Z,95099.95
2018-05-03T12:07:45.750Z,95099.23
2018-05-03T12:10:16.043Z,95098.53
2018-05-03T12:12:45.152Z,95098.90
2018-05-03T12:15:14.969Z,95097.02
2018-05-03T12:17:44.025Z,95099.89
2018-05-03T12:22:48.827Z,95091.95
2018-05-03T12:25:18.537Z,95095.52
2018-05-03T12:27:48.522Z,95094.48
2018-05-03T12:30:17.578Z,95090.97
2018-05-03T12:32:47.108Z,95091.67
2018-05-03T12:35:16.177Z,95093.02
2018-05-03T12:37:46.141Z,95093.06
2018-05-03T12:42:50.927Z,95099.70
2018-05-03T12:45:20.127Z,95098.38
2018-05-03T12:50:25.838Z,95095.52
2018-05-03T12:52:54.898Z,95096.88
2018-05-03T12:55:24.715Z,95096.84
2018-05-03T12:57:53.782Z,95089.16
2018-05-03T13:00:22.881Z,95092.66
2018-05-03T13:02:52.069Z,95091.83
2018-05-03T13:05:21.111Z,95093.66
2018-05-03T13:07:50.175Z,95095.42
2018-05-03T13:10:19.227Z,95090.64
2018-05-03T13:12:49.096Z,95087.26
2018-05-03T13:15:18.126Z,95085.83
2018-05-03T13:17:48.099Z,95083.38
2018-05-03T13:20:17.259Z,95083.52
2018-05-03T13:22:46.383Z,95082.31
2018-05-03T13:25:15.438Z,95086.34
2018-05-03T13:30:21.214Z,95082.58
2018-05-03T13:35:25.966Z,95071.77
2018-05-03T13:37:55.370Z,95075.30
2018-05-03T13:43:00.223Z,95075.59
2018-05-03T13:45:29.331Z,95068.18
2018-05-03T13:47:59.462Z,95067.55
2018-05-03T13:53:04.199Z,95063.59
2018-05-03T13:55:36.698Z,95058.41
2018-05-03T13:58:06.697Z,95052.97
2018-05-03T14:00:35.758Z,95054.20
2018-05-03T14:03:04.808Z,95048.95
2018-05-03T14:05:33.868Z,95038.00
2018-05-03T14:08:03.272Z,95041.93
2018-05-03T14:13:08.528Z,95031.16
2018-05-03T14:15:37.558Z,95029.77
2018-05-03T14:18:06.646Z,95029.72
2018-05-03T14:20:35.826Z,95039.19
2018-05-03T14:23:04.940Z,95032.94
2018-05-03T14:25:35.482Z,95033.05
2018-05-03T14:28:04.522Z,95026.48
2018-05-03T14:30:33.928Z,95025.64
2018-05-03T14:33:02.982Z,95012.66
2018-05-03T14:38:08.257Z,95015.52
2018-05-03T14:40:37.339Z,95012.44
2018-05-03T14:43:08.764Z,95007.98
2018-05-03T14:45:38.154Z,95010.48
2018-05-03T14:48:07.205Z,95012.27
2018-05-03T14:50:36.294Z,95018.88
2018-05-03T14:53:05.816Z,95020.13
2018-05-03T14:55:37.636Z,95016.31
2018-05-03T14:58:08.766Z,95024.50
2018-05-03T15:00:44.069Z,95029.60
2018-05-03T15:03:19.277Z,95036.55
2018-05-03T15:05:50.663Z,95040.22
2018-05-03T15:08:21.797Z,95043.00
2018-05-03T15:10:51.678Z,95037.59
2018-05-03T15:13:21.436Z,95043.34
2018-05-03T15:15:50.666Z,95044.00
2018-05-03T15:18:27.603Z,95041.94
2018-05-03T15:23:39.163Z,95043.70
2018-05-03T15:26:09.930Z,95054.07
2018-05-03T15:28:39.639Z,95055.36
2018-05-03T15:31:19.844Z,95058.92
2018-05-03T15:33:50.000Z,95057.74
2018-05-03T15:36:19.123Z,95056.11
2018-05-03T15:38:48.570Z,95058.93
2018-05-03T15:41:17.847Z,95057.13
2018-05-03T15:43:56.775Z,95063.68
2018-05-03T15:46:27.451Z,95058.41
2018-05-03T15:48:56.638Z,95060.58
2018-05-03T15:51:26.946Z,95060.58
2018-05-03T15:53:56.181Z,95056.64
2018-05-03T15:56:25.258Z,95062.69
2018-05-03T15:58:54.342Z,95063.38
2018-05-03T16:03:59.128Z,95063.00
2018-05-03T16:06:28.208Z,95065.31
2018-05-03T16:08:57.878Z,95071.16
2018-05-03T16:11:26.952Z,95068.17
2018-05-03T16:13:57.028Z,95072.12
2018-05-03T16:19:02.000Z,95072.97
2018-05-03T16:21:31.247Z,95073.53
2018-05-03T16:24:00.612Z,95082.64
2018-05-03T16:26:29.816Z,95081.98
2018-05-03T16:29:00.145Z,95078.02
2018-05-03T16:31:29.312Z,95079.98
2018-05-03T16:33:58.442Z,95080.74
2018-05-03T16:36:27.566Z,95083.27
2018-05-03T16:38:56.634Z,95090.28
2018-05-03T16:41:25.790Z,95089.85
2018-05-03T16:43:55.441Z,95090.66
2018-05-03T16:46:24.776Z,95093.59
2018-05-03T16:48:53.907Z,95094.21
2018-05-03T16:51:23.458Z,95098.58
2018-05-03T16:53:52.636Z,95100.77
2018-05-03T16:56:21.742Z,95098.58
2018-05-03T16:58:50.903Z,95101.31
2018-05-03T17:01:20.002Z,95102.06
2018-05-03T17:06:25.550Z,95108.08
2018-05-03T17:08:54.692Z,95116.05
2018-05-03T17:11:23.980Z,95119.78
2018-05-03T17:13:53.232Z,95120.22
2018-05-03T17:16:22.345Z,95117.43
2018-05-03T17:21:27.539Z,95123.70
2018-05-03T17:23:57.491Z,95125.25
2018-05-03T17:26:26.627Z,95124.94
2018-05-03T17:28:55.762Z,95121.46
2018-05-03T17:31:25.221Z,95120.73
2018-05-03T17:33:54.329Z,95123.84
2018-05-03T17:36:23.852Z,95125.48
2018-05-03T17:38:52.962Z,95125.84
2018-05-03T17:43:57.901Z,95125.02
2018-05-03T17:46:28.237Z,95122.39
2018-05-03T17:48:57.413Z,95120.89
2018-05-03T17:51:26.535Z,95123.44
2018-05-03T17:53:55.626Z,95125.28
2018-05-03T17:56:25.181Z,95128.27
2018-05-03T17:58:54.395Z,95131.69
2018-05-03T18:01:24.820Z,95132.77
2018-05-03T18:03:54.975Z,95125.44
2018-05-03T18:06:24.123Z,95134.48
2018-05-03T18:08:53.535Z,95139.75
2018-05-03T18:11:22.619Z,95145.52
2018-05-03T18:13:52.669Z,95154.32
2018-05-03T18:16:22.357Z,95162.73
2018-05-03T18:18:51.925Z,95166.20
2018-05-03T18:21:21.034Z,95175.55
2018-05-03T18:23:51.025Z,95182.36
2018-05-03T18:26:20.500Z,95184.33
2018-05-03T18:28:49.613Z,95190.41
2018-05-03T18:31:18.691Z,95196.12
2018-05-03T18:33:47.871Z,95200.39
2018-05-03T18:38:52.679Z,95214.25
2018-05-03T18:41:22.322Z,95214.42
2018-05-03T18:46:27.624Z,95219.97
2018-05-03T18:48:57.215Z,95225.38
2018-05-03T18:51:26.373Z,95232.90
2018-05-03T18:53:55.932Z,95241.12
2018-05-03T18:59:00.847Z,95239.59
2018-05-03T19:01:29.958Z,95242.23
2018-05-03T19:03:59.500Z,95243.13
2018-05-03T19:06:28.530Z,95246.81
2018-05-03T19:08:57.805Z,95248.23
2018-05-03T19:11:26.986Z,95251.02
2018-05-03T19:13:56.766Z,95251.75
2018-05-03T19:16:25.864Z,95255.63
2018-05-03T19:18:54.972Z,95258.86
2018-05-03T19:21:25.122Z,95268.97
2018-05-03T19:23:54.801Z,95268.31
2018-05-03T19:26:25.007Z,95269.98
2018-05-03T19:28:54.139Z,95275.55
2018-05-03T19:31:23.808Z,95277.16
2018-05-03T19:33:53.007Z,95278.80
2018-05-03T19:36:22.152Z,95278.70
2018-05-03T19:38:51.971Z,95277.59
2018-05-03T19:43:57.977Z,95277.39
2018-05-03T19:49:03.078Z,95279.53
2018-05-03T19:51:32.599Z,95278.27
2018-05-03T19:54:01.629Z,95276.15
2018-05-03T19:56:30.843Z,95277.07
2018-05-03T19:59:00.455Z,95281.43
2018-05-03T20:01:30.047Z,95281.21
2018-05-03T20:03:59.184Z,95279.98
2018-05-03T20:06:28.456Z,95278.15
2018-05-03T20:11:33.650Z,95274.50
2018-05-03T20:14:02.712Z,95271.61
2018-05-03T20:19:07.575Z,95265.63
2018-05-03T20:21:36.664Z,95266.95
2018-05-03T20:24:06.349Z,95269.45
2018-05-03T20:26:35.479Z,95267.42
2018-05-03T20:29:05.160Z,95266.79
2018-05-03T20:31:34.325Z,95268.35
2018-05-03T20:34:03.943Z,95272.97
2018-05-03T20:36:33.424Z,95275.25
2018-05-03T20:39:02.607Z,95276.89
2018-05-03T20:41:31.786Z,95279.64
2018-05-03T20:44:01.348Z,95276.80
2018-05-03T20:46:30.769Z,95272.36
2018-05-03T20:48:59.941Z,95266.95
2018-05-03T20:54:05.074Z,95269.39
2018-05-03T20:56:35.246Z,95267.48
2018-05-03T20:59:04.721Z,95269.92
2018-05-03T21:04:09.509Z,95275.10
2018-05-03T21:06:38.581Z,95277.73
2018-05-03T21:09:08.146Z,95280.52
2018-05-03T21:11:37.609Z,95280.81
2018-05-03T21:14:06.698Z,95283.94
2018-05-03T21:19:11.699Z,95277.17
2018-05-03T21:24:16.624Z,95278.36
2018-05-03T21:26:46.453Z,95274.66
2018-05-03T21:29:15.543Z,95272.91
2018-05-03T21:31:44.806Z,95268.27
2018-05-03T21:34:14.001Z,95271.21
2018-05-03T21:36:43.080Z,95263.43
2018-05-03T21:39:12.145Z,95268.31
2018-05-03T21:41:41.394Z,95267.89
2018-05-03T21:44:12.780Z,95256.92
2018-05-03T21:46:41.844Z,95264.21
2018-05-03T21:49:11.075Z,95260.31
2018-05-03T21:51:40.160Z,95264.66
2018-05-03T21:54:09.233Z,95266.80
2018-05-03T21:56:39.006Z,95267.66
2018-05-03T21:59:08.119Z,95273.26
2018-05-03T22:01:37.225Z,95277.42
2018-05-03T22:04:06.409Z,95280.95
2018-05-03T22:06:35.472Z,95278.09
2018-05-03T22:09:06.906Z,95279.23
2018-05-03T22:11:36.177Z,95283.34
2018-05-03T22:14:05.377Z,95293.67
2018-05-03T22:16:34.486Z,95298.95
2018-05-03T22:19:03.582Z,95300.89
2018-05-03T22:24:08.629Z,95307.03
2018-05-03T22:26:37.828Z,95308.57
2018-05-03T22:29:07.388Z,95315.17
2018-05-03T22:31:36.502Z,95316.33
2018-05-03T22:34:05.663Z,95321.09
2018-05-03T22:36:35.263Z,95316.45
2018-05-03T22:39:04.329Z,95322.39
2018-05-03T22:44:13.061Z,95317.15
2018-05-03T22:46:42.263Z,95312.47
2018-05-03T22:49:11.396Z,95310.52
2018-05-03T22:51:40.618Z,95309.31
2018-05-03T22:54:09.706Z,95308.67
2018-05-03T22:56:38.850Z,95308.55
2018-05-03T22:59:08.040Z,95307.68
2018-05-03T23:01:37.148Z,95308.75
2018-05-03T23:04:06.342Z,95305.02
2018-05-03T23:06:36.291Z,95304.41
2018-05-03T23:09:05.434Z,95305.41
2018-05-03T23:11:34.561Z,95301.26
2018-05-03T23:14:03.736Z,95305.08
2018-05-03T23:16:33.532Z,95306.64
2018-05-03T23:19:02.627Z,95309.44
2018-05-03T23:24:07.548Z,95319.12
2018-05-03T23:26:36.662Z,95315.30
2018-05-03T23:29:06.079Z,95320.41
2018-05-03T23:31:35.195Z,95324.60
2018-05-03T23:34:04.664Z,95325.22
2018-05-03T23:36:34.073Z,95329.42
2018-05-03T23:39:03.174Z,95329.72
2018-05-03T23:41:32.277Z,95330.51
2018-05-03T23:44:01.683Z,95324.34
2018-05-03T23:46:30.803Z,95329.04
2018-05-03T23:48:59.946Z,95333.90
2018-05-03T23:51:30.650Z,95330.06
2018-05-03T23:54:00.619Z,95330.39
2018-05-03T23:56:29.833Z,95327.50
2018-05-03T23:58:59.315Z,95334.05
